sensor_id;sensor_type;location;lat;lon;timestamp;temperature;humidity
22071;DHT22;11200;51.488;6.668;2022-09-02T00:00:45;18.70;99.90
22071;DHT22;11200;51.488;6.668;2022-09-02T00:03:12;18.80;99.90
22071;DHT22;11200;51.488;6.668;2022-09-02T00:05:37;18.70;99.90
22071;DHT22;11200;51.488;6.668;2022-09-02T00:08:04;18.70;99.90
22071;DHT22;11200;51.488;6.668;2022-09-02T00:10:30;18.70;99.90
22071;DHT22;11200;51.488;6.668;2022-09-02T00:12:56;18.70;99.90
22071;DHT22;11200;51.488;6.668;2022-09-02T00:15:22;18.70;99.90
22071;DHT22;11200;51.488;6.668;2022-09-02T00:17:48;18.60;99.90
22071;DHT22;11200;51.488;6.668;2022-09-02T00:20:14;18.60;99.90
22071;DHT22;11200;51.488;6.668;2022-09-02T00:22:39;18.60;99.90
22071;DHT22;11200;51.488;6.668;2022-09-02T00:25:05;18.60;99.90
22071;DHT22;11200;51.488;6.668;2022-09-02T00:27:31;18.50;99.90
22071;DHT22;11200;51.488;6.668;2022-09-02T00:29:57;18.50;99.90
22071;DHT22;11200;51.488;6.668;2022-09-02T00:32:23;18.50;99.90
22071;DHT22;11200;51.488;6.668;2022-09-02T00:34:48;18.50;99.90
22071;DHT22;11200;51.488;6.668;2022-09-02T00:37:14;18.50;99.90
22071;DHT22;11200;51.488;6.668;2022-09-02T00:39:40;18.40;99.90
22071;DHT22;11200;51.488;6.668;2022-09-02T00:42:06;18.40;99.90
22071;DHT22;11200;51.488;6.668;2022-09-02T00:44:32;18.40;99.90
22071;DHT22;11200;51.488;6.668;2022-09-02T00:46:59;18.40;99.90
22071;DHT22;11200;51.488;6.668;2022-09-02T00:49:28;18.30;99.90
22071;DHT22;11200;51.488;6.668;2022-09-02T00:51:56;18.30;99.90
22071;DHT22;11200;51.488;6.668;2022-09-02T00:54:25;18.30;99.90
22071;DHT22;11200;51.488;6.668;2022-09-02T00:56:52;18.30;99.90
22071;DHT22;11200;51.488;6.668;2022-09-02T00:59:23;18.20;99.90
22071;DHT22;11200;51.488;6.668;2022-09-02T01:01:50;18.20;99.90
22071;DHT22;11200;51.488;6.668;2022-09-02T01:04:15;18.20;99.90
22071;DHT22;11200;51.488;6.668;2022-09-02T01:06:41;18.20;99.90
22071;DHT22;11200;51.488;6.668;2022-09-02T01:09:11;18.10;99.90
22071;DHT22;11200;51.488;6.668;2022-09-02T01:11:45;18.10;99.90
22071;DHT22;11200;51.488;6.668;2022-09-02T01:14:13;18.10;99.90
22071;DHT22;11200;51.488;6.668;2022-09-02T01:16:48;18.00;99.90
22071;DHT22;11200;51.488;6.668;2022-09-02T01:19:20;18.00;99.90
22071;DHT22;11200;51.488;6.668;2022-09-02T01:21:49;18.00;99.90
22071;DHT22;11200;51.488;6.668;2022-09-02T01:24:15;18.00;99.90
22071;DHT22;11200;51.488;6.668;2022-09-02T01:26:41;17.90;99.90
22071;DHT22;11200;51.488;6.668;2022-09-02T01:29:07;17.90;99.90
22071;DHT22;11200;51.488;6.668;2022-09-02T01:31:33;17.90;99.90
22071;DHT22;11200;51.488;6.668;2022-09-02T01:33:58;17.90;99.90
22071;DHT22;11200;51.488;6.668;2022-09-02T01:36:24;17.90;99.90
22071;DHT22;11200;51.488;6.668;2022-09-02T01:38:50;17.90;99.90
22071;DHT22;11200;51.488;6.668;2022-09-02T01:41:15;17.80;99.90
22071;DHT22;11200;51.488;6.668;2022-09-02T01:43:41;17.80;99.90
22071;DHT22;11200;51.488;6.668;2022-09-02T01:46:06;17.70;99.90
22071;DHT22;11200;51.488;6.668;2022-09-02T01:48:33;17.70;99.90
22071;DHT22;11200;51.488;6.668;2022-09-02T01:51:00;17.70;99.90
22071;DHT22;11200;51.488;6.668;2022-09-02T01:53:27;17.70;99.90
22071;DHT22;11200;51.488;6.668;2022-09-02T01:55:53;17.60;99.90
22071;DHT22;11200;51.488;6.668;2022-09-02T01:58:19;17.60;99.90
22071;DHT22;11200;51.488;6.668;2022-09-02T02:00:46;17.60;99.90
22071;DHT22;11200;51.488;6.668;2022-09-02T02:03:12;17.50;99.90
22071;DHT22;11200;51.488;6.668;2022-09-02T02:05:38;17.50;99.90
22071;DHT22;11200;51.488;6.668;2022-09-02T02:08:04;17.50;99.90
22071;DHT22;11200;51.488;6.668;2022-09-02T02:10:31;17.40;99.90
22071;DHT22;11200;51.488;6.668;2022-09-02T02:12:58;17.40;99.90
22071;DHT22;11200;51.488;6.668;2022-09-02T02:15:23;17.40;99.90
22071;DHT22;11200;51.488;6.668;2022-09-02T02:17:49;17.30;99.90
22071;DHT22;11200;51.488;6.668;2022-09-02T02:20:17;17.30;99.90
22071;DHT22;11200;51.488;6.668;2022-09-02T02:22:43;17.30;99.90
22071;DHT22;11200;51.488;6.668;2022-09-02T02:25:09;17.30;99.90
22071;DHT22;11200;51.488;6.668;2022-09-02T02:27:36;17.20;99.90
22071;DHT22;11200;51.488;6.668;2022-09-02T02:30:02;17.20;99.90
22071;DHT22;11200;51.488;6.668;2022-09-02T02:32:27;17.20;99.90
22071;DHT22;11200;51.488;6.668;2022-09-02T02:34:53;17.10;99.90
22071;DHT22;11200;51.488;6.668;2022-09-02T02:37:19;17.10;99.90
22071;DHT22;11200;51.488;6.668;2022-09-02T02:39:45;17.10;99.90
22071;DHT22;11200;51.488;6.668;2022-09-02T02:42:11;17.00;99.90
22071;DHT22;11200;51.488;6.668;2022-09-02T02:44:38;17.00;99.90
22071;DHT22;11200;51.488;6.668;2022-09-02T02:47:06;17.00;99.90
22071;DHT22;11200;51.488;6.668;2022-09-02T02:49:36;17.00;99.90
22071;DHT22;11200;51.488;6.668;2022-09-02T02:52:02;17.00;99.90
22071;DHT22;11200;51.488;6.668;2022-09-02T02:54:28;17.00;99.90
22071;DHT22;11200;51.488;6.668;2022-09-02T02:56:54;16.90;99.90
22071;DHT22;11200;51.488;6.668;2022-09-02T02:59:19;16.90;99.90
22071;DHT22;11200;51.488;6.668;2022-09-02T03:01:45;16.90;99.90
22071;DHT22;11200;51.488;6.668;2022-09-02T03:04:10;16.90;99.90
22071;DHT22;11200;51.488;6.668;2022-09-02T03:06:36;16.90;99.90
22071;DHT22;11200;51.488;6.668;2022-09-02T03:09:03;16.90;99.90
22071;DHT22;11200;51.488;6.668;2022-09-02T03:11:29;16.90;99.90
22071;DHT22;11200;51.488;6.668;2022-09-02T03:13:55;16.80;99.90
22071;DHT22;11200;51.488;6.668;2022-09-02T03:16:21;16.80;99.90
22071;DHT22;11200;51.488;6.668;2022-09-02T03:18:48;16.80;99.90
22071;DHT22;11200;51.488;6.668;2022-09-02T03:21:15;16.80;99.90
22071;DHT22;11200;51.488;6.668;2022-09-02T03:23:42;16.70;99.90
22071;DHT22;11200;51.488;6.668;2022-09-02T03:26:11;16.70;99.90
22071;DHT22;11200;51.488;6.668;2022-09-02T03:28:37;16.70;99.90
22071;DHT22;11200;51.488;6.668;2022-09-02T03:31:04;16.70;99.90
22071;DHT22;11200;51.488;6.668;2022-09-02T03:33:30;16.60;99.90
22071;DHT22;11200;51.488;6.668;2022-09-02T03:35:56;16.60;99.90
22071;DHT22;11200;51.488;6.668;2022-09-02T03:38:22;16.70;99.90
22071;DHT22;11200;51.488;6.668;2022-09-02T03:40:48;16.60;99.90
22071;DHT22;11200;51.488;6.668;2022-09-02T03:43:13;16.60;99.90
22071;DHT22;11200;51.488;6.668;2022-09-02T03:45:39;16.60;99.90
22071;DHT22;11200;51.488;6.668;2022-09-02T03:48:06;16.50;99.90
22071;DHT22;11200;51.488;6.668;2022-09-02T03:50:35;16.50;99.90
22071;DHT22;11200;51.488;6.668;2022-09-02T03:53:02;16.50;99.90
22071;DHT22;11200;51.488;6.668;2022-09-02T03:55:28;16.50;99.90
22071;DHT22;11200;51.488;6.668;2022-09-02T03:57:54;16.50;99.90
22071;DHT22;11200;51.488;6.668;2022-09-02T04:00:23;16.50;99.90
22071;DHT22;11200;51.488;6.668;2022-09-02T04:02:52;16.50;99.90
22071;DHT22;11200;51.488;6.668;2022-09-02T04:05:18;16.50;99.90
22071;DHT22;11200;51.488;6.668;2022-09-02T04:07:44;16.50;99.90
22071;DHT22;11200;51.488;6.668;2022-09-02T04:10:11;16.50;99.90
22071;DHT22;11200;51.488;6.668;2022-09-02T04:12:37;16.50;99.90
22071;DHT22;11200;51.488;6.668;2022-09-02T04:15:05;16.50;99.90
22071;DHT22;11200;51.488;6.668;2022-09-02T04:17:31;16.50;99.90
22071;DHT22;11200;51.488;6.668;2022-09-02T04:19:59;16.50;99.90
22071;DHT22;11200;51.488;6.668;2022-09-02T04:22:25;16.50;99.90
22071;DHT22;11200;51.488;6.668;2022-09-02T04:24:50;16.40;99.90
22071;DHT22;11200;51.488;6.668;2022-09-02T04:27:16;16.50;99.90
22071;DHT22;11200;51.488;6.668;2022-09-02T04:29:42;16.40;99.90
22071;DHT22;11200;51.488;6.668;2022-09-02T04:32:07;16.40;99.90
22071;DHT22;11200;51.488;6.668;2022-09-02T04:34:33;16.40;99.90
22071;DHT22;11200;51.488;6.668;2022-09-02T04:36:58;16.40;99.90
22071;DHT22;11200;51.488;6.668;2022-09-02T04:39:24;16.40;99.90
22071;DHT22;11200;51.488;6.668;2022-09-02T04:41:50;16.40;99.90
22071;DHT22;11200;51.488;6.668;2022-09-02T04:44:15;16.40;99.90
22071;DHT22;11200;51.488;6.668;2022-09-02T04:46:41;16.30;99.90
22071;DHT22;11200;51.488;6.668;2022-09-02T04:49:10;16.40;99.90
22071;DHT22;11200;51.488;6.668;2022-09-02T04:51:39;16.30;99.90
22071;DHT22;11200;51.488;6.668;2022-09-02T04:54:04;16.30;99.90
22071;DHT22;11200;51.488;6.668;2022-09-02T04:56:33;16.30;99.90
22071;DHT22;11200;51.488;6.668;2022-09-02T04:59:01;16.30;99.90
22071;DHT22;11200;51.488;6.668;2022-09-02T05:01:30;16.20;99.90
22071;DHT22;11200;51.488;6.668;2022-09-02T05:03:56;16.20;99.90
22071;DHT22;11200;51.488;6.668;2022-09-02T05:06:24;16.30;99.90
22071;DHT22;11200;51.488;6.668;2022-09-02T05:08:54;16.20;99.90
22071;DHT22;11200;51.488;6.668;2022-09-02T05:11:22;16.20;99.90
22071;DHT22;11200;51.488;6.668;2022-09-02T05:13:50;16.20;99.90
22071;DHT22;11200;51.488;6.668;2022-09-02T05:16:21;16.10;99.90
22071;DHT22;11200;51.488;6.668;2022-09-02T05:18:49;16.20;99.90
22071;DHT22;11200;51.488;6.668;2022-09-02T05:21:15;16.10;99.90
22071;DHT22;11200;51.488;6.668;2022-09-02T05:23:42;16.10;99.90
22071;DHT22;11200;51.488;6.668;2022-09-02T05:26:08;16.10;99.90
22071;DHT22;11200;51.488;6.668;2022-09-02T05:28:35;16.10;99.90
22071;DHT22;11200;51.488;6.668;2022-09-02T05:31:06;16.10;99.90
22071;DHT22;11200;51.488;6.668;2022-09-02T05:33:34;16.00;99.90
22071;DHT22;11200;51.488;6.668;2022-09-02T05:36:06;16.00;99.90
22071;DHT22;11200;51.488;6.668;2022-09-02T05:38:33;16.00;99.90
22071;DHT22;11200;51.488;6.668;2022-09-02T05:41:04;16.00;99.90
22071;DHT22;11200;51.488;6.668;2022-09-02T05:43:31;16.00;99.90
22071;DHT22;11200;51.488;6.668;2022-09-02T05:45:57;16.10;99.90
22071;DHT22;11200;51.488;6.668;2022-09-02T05:48:24;15.90;99.90
22071;DHT22;11200;51.488;6.668;2022-09-02T05:51:08;15.90;99.90
22071;DHT22;11200;51.488;6.668;2022-09-02T05:53:33;15.90;99.90
22071;DHT22;11200;51.488;6.668;2022-09-02T05:56:03;15.90;99.90
22071;DHT22;11200;51.488;6.668;2022-09-02T05:58:29;15.90;99.90
22071;DHT22;11200;51.488;6.668;2022-09-02T06:00:55;15.90;99.90
22071;DHT22;11200;51.488;6.668;2022-09-02T06:03:21;16.00;99.90
22071;DHT22;11200;51.488;6.668;2022-09-02T06:05:57;16.00;99.90
22071;DHT22;11200;51.488;6.668;2022-09-02T06:08:23;16.00;99.90
22071;DHT22;11200;51.488;6.668;2022-09-02T06:10:49;16.00;99.90
22071;DHT22;11200;51.488;6.668;2022-09-02T06:13:15;16.00;99.90
22071;DHT22;11200;51.488;6.668;2022-09-02T06:15:45;16.00;99.90
22071;DHT22;11200;51.488;6.668;2022-09-02T06:18:11;16.10;99.90
22071;DHT22;11200;51.488;6.668;2022-09-02T06:20:41;16.10;99.90
22071;DHT22;11200;51.488;6.668;2022-09-02T06:23:07;16.10;99.90
22071;DHT22;11200;51.488;6.668;2022-09-02T06:25:40;16.10;99.90
22071;DHT22;11200;51.488;6.668;2022-09-02T06:28:06;16.10;99.90
22071;DHT22;11200;51.488;6.668;2022-09-02T06:30:32;16.10;99.90
22071;DHT22;11200;51.488;6.668;2022-09-02T06:32:59;16.10;99.90
22071;DHT22;11200;51.488;6.668;2022-09-02T06:35:27;16.20;99.90
22071;DHT22;11200;51.488;6.668;2022-09-02T06:37:53;16.20;99.90
22071;DHT22;11200;51.488;6.668;2022-09-02T06:40:18;16.20;99.90
22071;DHT22;11200;51.488;6.668;2022-09-02T06:42:44;16.30;99.90
22071;DHT22;11200;51.488;6.668;2022-09-02T06:45:10;16.40;99.90
22071;DHT22;11200;51.488;6.668;2022-09-02T06:47:36;16.40;99.90
22071;DHT22;11200;51.488;6.668;2022-09-02T06:50:02;16.50;99.90
22071;DHT22;11200;51.488;6.668;2022-09-02T06:52:27;16.60;99.90
22071;DHT22;11200;51.488;6.668;2022-09-02T06:54:53;16.70;99.90
22071;DHT22;11200;51.488;6.668;2022-09-02T06:57:19;16.80;99.90
22071;DHT22;11200;51.488;6.668;2022-09-02T06:59:45;17.00;99.90
22071;DHT22;11200;51.488;6.668;2022-09-02T07:02:12;16.90;99.90
22071;DHT22;11200;51.488;6.668;2022-09-02T07:04:39;17.00;99.90
22071;DHT22;11200;51.488;6.668;2022-09-02T07:07:23;17.10;99.90
22071;DHT22;11200;51.488;6.668;2022-09-02T07:09:49;17.30;99.90
22071;DHT22;11200;51.488;6.668;2022-09-02T07:12:14;17.30;99.90
22071;DHT22;11200;51.488;6.668;2022-09-02T07:14:42;17.50;99.90
22071;DHT22;11200;51.488;6.668;2022-09-02T07:17:10;17.50;99.90
22071;DHT22;11200;51.488;6.668;2022-09-02T07:19:36;17.60;99.90
22071;DHT22;11200;51.488;6.668;2022-09-02T07:22:05;17.70;99.90
22071;DHT22;11200;51.488;6.668;2022-09-02T07:24:31;17.80;99.90
22071;DHT22;11200;51.488;6.668;2022-09-02T07:26:57;17.80;99.90
22071;DHT22;11200;51.488;6.668;2022-09-02T07:29:23;17.90;99.90
22071;DHT22;11200;51.488;6.668;2022-09-02T07:31:48;17.90;99.90
22071;DHT22;11200;51.488;6.668;2022-09-02T07:34:15;17.90;99.90
22071;DHT22;11200;51.488;6.668;2022-09-02T07:36:42;18.00;99.90
22071;DHT22;11200;51.488;6.668;2022-09-02T07:39:11;18.10;99.90
22071;DHT22;11200;51.488;6.668;2022-09-02T07:41:38;18.10;99.90
22071;DHT22;11200;51.488;6.668;2022-09-02T07:44:07;18.20;99.90
22071;DHT22;11200;51.488;6.668;2022-09-02T07:46:36;18.20;99.90
22071;DHT22;11200;51.488;6.668;2022-09-02T07:49:05;18.30;99.90
22071;DHT22;11200;51.488;6.668;2022-09-02T07:51:33;18.40;99.90
22071;DHT22;11200;51.488;6.668;2022-09-02T07:54:00;18.40;99.90
22071;DHT22;11200;51.488;6.668;2022-09-02T07:56:25;18.50;99.90
22071;DHT22;11200;51.488;6.668;2022-09-02T07:58:51;18.60;99.90
22071;DHT22;11200;51.488;6.668;2022-09-02T08:01:17;18.80;99.90
22071;DHT22;11200;51.488;6.668;2022-09-02T08:03:43;18.90;99.90
22071;DHT22;11200;51.488;6.668;2022-09-02T08:06:10;19.10;99.90
22071;DHT22;11200;51.488;6.668;2022-09-02T08:08:36;19.20;99.90
22071;DHT22;11200;51.488;6.668;2022-09-02T08:11:02;19.40;99.90
22071;DHT22;11200;51.488;6.668;2022-09-02T08:13:28;19.60;99.90
22071;DHT22;11200;51.488;6.668;2022-09-02T08:15:54;19.80;99.90
22071;DHT22;11200;51.488;6.668;2022-09-02T08:18:20;20.00;99.90
22071;DHT22;11200;51.488;6.668;2022-09-02T08:20:46;20.30;99.90
22071;DHT22;11200;51.488;6.668;2022-09-02T08:23:12;20.50;99.90
22071;DHT22;11200;51.488;6.668;2022-09-02T08:25:39;20.70;99.90
22071;DHT22;11200;51.488;6.668;2022-09-02T08:28:05;20.90;99.90
22071;DHT22;11200;51.488;6.668;2022-09-02T08:30:31;21.10;99.90
22071;DHT22;11200;51.488;6.668;2022-09-02T08:32:57;21.20;99.90
22071;DHT22;11200;51.488;6.668;2022-09-02T08:35:23;21.30;99.90
22071;DHT22;11200;51.488;6.668;2022-09-02T08:37:49;21.40;99.90
22071;DHT22;11200;51.488;6.668;2022-09-02T08:40:22;21.50;99.90
22071;DHT22;11200;51.488;6.668;2022-09-02T08:42:53;21.70;99.90
22071;DHT22;11200;51.488;6.668;2022-09-02T08:45:35;21.90;99.90
22071;DHT22;11200;51.488;6.668;2022-09-02T08:48:21;22.20;99.90
22071;DHT22;11200;51.488;6.668;2022-09-02T08:50:51;22.50;99.90
22071;DHT22;11200;51.488;6.668;2022-09-02T08:55:53;23.20;99.90
22071;DHT22;11200;51.488;6.668;2022-09-02T08:58:23;23.50;99.90
22071;DHT22;11200;51.488;6.668;2022-09-02T09:01:12;23.80;99.90
22071;DHT22;11200;51.488;6.668;2022-09-02T09:03:49;24.10;99.90
22071;DHT22;11200;51.488;6.668;2022-09-02T09:06:27;24.50;99.90
22071;DHT22;11200;51.488;6.668;2022-09-02T09:14:47;25.50;99.90
22071;DHT22;11200;51.488;6.668;2022-09-02T09:17:29;25.80;99.90
22071;DHT22;11200;51.488;6.668;2022-09-02T09:20:01;26.10;99.90
22071;DHT22;11200;51.488;6.668;2022-09-02T09:22:32;26.30;99.90
22071;DHT22;11200;51.488;6.668;2022-09-02T09:24:58;26.60;99.90
22071;DHT22;11200;51.488;6.668;2022-09-02T09:27:24;26.80;99.90
22071;DHT22;11200;51.488;6.668;2022-09-02T09:29:51;27.00;99.90
22071;DHT22;11200;51.488;6.668;2022-09-02T09:32:29;27.20;99.90
22071;DHT22;11200;51.488;6.668;2022-09-02T09:35:00;27.40;99.90
22071;DHT22;11200;51.488;6.668;2022-09-02T09:37:31;27.60;99.90
22071;DHT22;11200;51.488;6.668;2022-09-02T09:39:57;27.80;99.90
22071;DHT22;11200;51.488;6.668;2022-09-02T09:43:23;28.00;99.90
22071;DHT22;11200;51.488;6.668;2022-09-02T09:45:46;28.20;99.90
22071;DHT22;11200;51.488;6.668;2022-09-02T09:51:08;28.50;99.90
22071;DHT22;11200;51.488;6.668;2022-09-02T09:53:35;28.70;99.90
22071;DHT22;11200;51.488;6.668;2022-09-02T10:01:29;29.20;99.90
22071;DHT22;11200;51.488;6.668;2022-09-02T10:04:10;29.40;99.90
22071;DHT22;11200;51.488;6.668;2022-09-02T10:06:46;29.50;99.90
22071;DHT22;11200;51.488;6.668;2022-09-02T10:11:38;29.80;99.90
22071;DHT22;11200;51.488;6.668;2022-09-02T10:14:17;30.00;99.90
22071;DHT22;11200;51.488;6.668;2022-09-02T10:30:24;30.80;99.90
22071;DHT22;11200;51.488;6.668;2022-09-02T10:33:06;30.80;99.90
22071;DHT22;11200;51.488;6.668;2022-09-02T10:40:58;30.80;99.90
22071;DHT22;11200;51.488;6.668;2022-09-02T10:43:48;30.70;99.80
22071;DHT22;11200;51.488;6.668;2022-09-02T10:46:23;30.60;99.70
22071;DHT22;11200;51.488;6.668;2022-09-02T10:49:43;30.40;99.60
22071;DHT22;11200;51.488;6.668;2022-09-02T10:52:25;30.20;99.60
22071;DHT22;11200;51.488;6.668;2022-09-02T10:57:56;29.90;99.90
22071;DHT22;11200;51.488;6.668;2022-09-02T11:00:25;29.80;99.90
22071;DHT22;11200;51.488;6.668;2022-09-02T11:03:11;29.70;99.40
22071;DHT22;11200;51.488;6.668;2022-09-02T11:05:51;29.50;99.70
22071;DHT22;11200;51.488;6.668;2022-09-02T11:08:46;29.40;99.50
22071;DHT22;11200;51.488;6.668;2022-09-02T11:11:26;29.30;97.90
22071;DHT22;11200;51.488;6.668;2022-09-02T11:16:43;29.20;99.20
22071;DHT22;11200;51.488;6.668;2022-09-02T11:22:06;29.00;99.70
22071;DHT22;11200;51.488;6.668;2022-09-02T11:24:51;28.90;99.40
22071;DHT22;11200;51.488;6.668;2022-09-02T11:30:18;28.80;99.60
22071;DHT22;11200;51.488;6.668;2022-09-02T11:33:01;28.70;98.40
22071;DHT22;11200;51.488;6.668;2022-09-02T11:35:35;28.60;97.60
22071;DHT22;11200;51.488;6.668;2022-09-02T11:38:09;28.60;98.30
22071;DHT22;11200;51.488;6.668;2022-09-02T11:43:43;28.60;99.30
22071;DHT22;11200;51.488;6.668;2022-09-02T11:49:31;28.60;99.90
22071;DHT22;11200;51.488;6.668;2022-09-02T11:52:08;28.50;99.40
22071;DHT22;11200;51.488;6.668;2022-09-02T11:54:45;28.50;99.70
22071;DHT22;11200;51.488;6.668;2022-09-02T11:57:18;28.50;99.40
22071;DHT22;11200;51.488;6.668;2022-09-02T12:02:46;28.60;98.30
22071;DHT22;11200;51.488;6.668;2022-09-02T12:07:57;28.80;97.10
22071;DHT22;11200;51.488;6.668;2022-09-02T12:15:36;29.00;98.40
22071;DHT22;11200;51.488;6.668;2022-09-02T12:18:09;29.10;98.20
22071;DHT22;11200;51.488;6.668;2022-09-02T12:23:07;29.10;98.00
22071;DHT22;11200;51.488;6.668;2022-09-02T12:25:36;29.20;98.00
22071;DHT22;11200;51.488;6.668;2022-09-02T12:28:27;29.10;98.00
22071;DHT22;11200;51.488;6.668;2022-09-02T12:33:30;29.10;97.20
22071;DHT22;11200;51.488;6.668;2022-09-02T12:35:56;29.00;96.50
22071;DHT22;11200;51.488;6.668;2022-09-02T12:38:26;29.00;96.30
22071;DHT22;11200;51.488;6.668;2022-09-02T12:48:58;28.90;97.40
22071;DHT22;11200;51.488;6.668;2022-09-02T12:54:25;28.90;97.20
22071;DHT22;11200;51.488;6.668;2022-09-02T12:56:53;28.80;95.90
22071;DHT22;11200;51.488;6.668;2022-09-02T12:59:33;28.90;95.80
22071;DHT22;11200;51.488;6.668;2022-09-02T13:08:18;28.80;94.20
22071;DHT22;11200;51.488;6.668;2022-09-02T13:14:15;28.70;94.80
22071;DHT22;11200;51.488;6.668;2022-09-02T13:33:36;28.40;94.40
22071;DHT22;11200;51.488;6.668;2022-09-02T13:36:02;28.40;96.00
22071;DHT22;11200;51.488;6.668;2022-09-02T13:38:29;28.30;96.10
22071;DHT22;11200;51.488;6.668;2022-09-02T13:40:56;28.30;95.20
22071;DHT22;11200;51.488;6.668;2022-09-02T13:43:23;28.30;96.20
22071;DHT22;11200;51.488;6.668;2022-09-02T13:45:52;28.40;96.50
22071;DHT22;11200;51.488;6.668;2022-09-02T13:48:21;28.40;96.00
22071;DHT22;11200;51.488;6.668;2022-09-02T13:50:50;28.50;96.10
22071;DHT22;11200;51.488;6.668;2022-09-02T13:53:32;28.50;95.30
22071;DHT22;11200;51.488;6.668;2022-09-02T13:56:00;28.60;96.60
22071;DHT22;11200;51.488;6.668;2022-09-02T14:00:56;28.60;94.40
22071;DHT22;11200;51.488;6.668;2022-09-02T14:03:23;28.60;96.50
22071;DHT22;11200;51.488;6.668;2022-09-02T14:05:51;28.60;96.50
22071;DHT22;11200;51.488;6.668;2022-09-02T14:08:24;28.60;96.70
22071;DHT22;11200;51.488;6.668;2022-09-02T14:10:54;28.70;96.00
22071;DHT22;11200;51.488;6.668;2022-09-02T14:13:21;28.60;96.50
22071;DHT22;11200;51.488;6.668;2022-09-02T14:15:47;28.60;95.50
22071;DHT22;11200;51.488;6.668;2022-09-02T14:18:18;28.60;96.90
22071;DHT22;11200;51.488;6.668;2022-09-02T14:21:14;28.50;96.00
22071;DHT22;11200;51.488;6.668;2022-09-02T14:23:48;28.50;96.30
22071;DHT22;11200;51.488;6.668;2022-09-02T14:26:36;28.40;96.10
22071;DHT22;11200;51.488;6.668;2022-09-02T14:29:05;28.30;96.50
22071;DHT22;11200;51.488;6.668;2022-09-02T14:31:32;28.30;96.90
22071;DHT22;11200;51.488;6.668;2022-09-02T14:33:59;28.20;96.40
22071;DHT22;11200;51.488;6.668;2022-09-02T14:36:36;28.10;95.80
22071;DHT22;11200;51.488;6.668;2022-09-02T14:39:13;28.00;95.20
22071;DHT22;11200;51.488;6.668;2022-09-02T14:41:48;28.00;96.40
22071;DHT22;11200;51.488;6.668;2022-09-02T14:46:46;27.90;96.00
22071;DHT22;11200;51.488;6.668;2022-09-02T14:49:23;27.80;96.00
22071;DHT22;11200;51.488;6.668;2022-09-02T14:51:51;27.80;96.70
22071;DHT22;11200;51.488;6.668;2022-09-02T14:54:40;27.70;95.50
22071;DHT22;11200;51.488;6.668;2022-09-02T14:57:38;27.70;95.60
22071;DHT22;11200;51.488;6.668;2022-09-02T15:00:11;27.60;94.70
22071;DHT22;11200;51.488;6.668;2022-09-02T15:02:43;27.50;95.90
22071;DHT22;11200;51.488;6.668;2022-09-02T15:05:12;27.50;95.50
22071;DHT22;11200;51.488;6.668;2022-09-02T15:07:41;27.50;96.50
22071;DHT22;11200;51.488;6.668;2022-09-02T15:10:07;27.40;95.90
22071;DHT22;11200;51.488;6.668;2022-09-02T15:12:37;27.40;95.60
22071;DHT22;11200;51.488;6.668;2022-09-02T15:15:05;27.30;96.40
22071;DHT22;11200;51.488;6.668;2022-09-02T15:17:31;27.20;95.20
22071;DHT22;11200;51.488;6.668;2022-09-02T15:19:56;27.20;96.60
22071;DHT22;11200;51.488;6.668;2022-09-02T15:22:22;27.10;96.90
22071;DHT22;11200;51.488;6.668;2022-09-02T15:24:48;27.10;97.10
22071;DHT22;11200;51.488;6.668;2022-09-02T15:27:15;27.00;97.10
22071;DHT22;11200;51.488;6.668;2022-09-02T15:29:41;27.00;96.90
22071;DHT22;11200;51.488;6.668;2022-09-02T15:32:16;27.00;97.30
22071;DHT22;11200;51.488;6.668;2022-09-02T15:34:41;26.90;96.80
22071;DHT22;11200;51.488;6.668;2022-09-02T15:37:07;26.90;97.10
22071;DHT22;11200;51.488;6.668;2022-09-02T15:39:32;26.80;97.20
22071;DHT22;11200;51.488;6.668;2022-09-02T15:41:58;26.70;96.60
22071;DHT22;11200;51.488;6.668;2022-09-02T15:44:24;26.70;96.10
22071;DHT22;11200;51.488;6.668;2022-09-02T15:46:51;26.70;95.50
22071;DHT22;11200;51.488;6.668;2022-09-02T15:49:18;26.60;95.20
22071;DHT22;11200;51.488;6.668;2022-09-02T15:51:45;26.60;95.50
22071;DHT22;11200;51.488;6.668;2022-09-02T15:54:12;26.60;95.90
22071;DHT22;11200;51.488;6.668;2022-09-02T15:56:40;26.60;95.70
22071;DHT22;11200;51.488;6.668;2022-09-02T15:59:10;26.50;95.30
22071;DHT22;11200;51.488;6.668;2022-09-02T16:01:39;26.50;94.70
22071;DHT22;11200;51.488;6.668;2022-09-02T16:04:06;26.40;95.50
22071;DHT22;11200;51.488;6.668;2022-09-02T16:06:33;26.40;94.90
22071;DHT22;11200;51.488;6.668;2022-09-02T16:09:01;26.30;95.50
22071;DHT22;11200;51.488;6.668;2022-09-02T16:11:27;26.30;94.30
22071;DHT22;11200;51.488;6.668;2022-09-02T16:13:53;26.20;95.00
22071;DHT22;11200;51.488;6.668;2022-09-02T16:16:19;26.20;95.20
22071;DHT22;11200;51.488;6.668;2022-09-02T16:18:49;26.20;96.50
22071;DHT22;11200;51.488;6.668;2022-09-02T16:21:16;26.20;96.10
22071;DHT22;11200;51.488;6.668;2022-09-02T16:23:42;26.10;96.00
22071;DHT22;11200;51.488;6.668;2022-09-02T16:28:44;26.10;96.60
22071;DHT22;11200;51.488;6.668;2022-09-02T16:31:12;26.10;95.70
22071;DHT22;11200;51.488;6.668;2022-09-02T16:33:38;26.00;95.60
22071;DHT22;11200;51.488;6.668;2022-09-02T16:36:07;26.00;96.60
22071;DHT22;11200;51.488;6.668;2022-09-02T16:38:33;26.00;95.60
22071;DHT22;11200;51.488;6.668;2022-09-02T16:40:59;25.90;95.70
22071;DHT22;11200;51.488;6.668;2022-09-02T16:43:25;25.90;95.60
22071;DHT22;11200;51.488;6.668;2022-09-02T16:45:51;25.90;96.30
22071;DHT22;11200;51.488;6.668;2022-09-02T16:48:18;25.80;94.40
22071;DHT22;11200;51.488;6.668;2022-09-02T16:50:44;25.80;94.90
22071;DHT22;11200;51.488;6.668;2022-09-02T16:53:11;25.70;94.80
22071;DHT22;11200;51.488;6.668;2022-09-02T16:55:44;25.70;95.10
22071;DHT22;11200;51.488;6.668;2022-09-02T16:58:10;25.60;95.30
22071;DHT22;11200;51.488;6.668;2022-09-02T17:00:37;25.60;96.20
22071;DHT22;11200;51.488;6.668;2022-09-02T17:03:07;25.60;96.30
22071;DHT22;11200;51.488;6.668;2022-09-02T17:05:33;25.60;96.60
22071;DHT22;11200;51.488;6.668;2022-09-02T17:07:59;25.60;96.40
22071;DHT22;11200;51.488;6.668;2022-09-02T17:10:27;25.60;96.60
22071;DHT22;11200;51.488;6.668;2022-09-02T17:12:54;25.50;96.30
22071;DHT22;11200;51.488;6.668;2022-09-02T17:15:20;25.50;96.50
22071;DHT22;11200;51.488;6.668;2022-09-02T17:17:45;25.40;96.40
22071;DHT22;11200;51.488;6.668;2022-09-02T17:20:11;25.40;96.90
22071;DHT22;11200;51.488;6.668;2022-09-02T17:22:38;25.40;96.80
22071;DHT22;11200;51.488;6.668;2022-09-02T17:25:05;25.40;96.90
22071;DHT22;11200;51.488;6.668;2022-09-02T17:27:31;25.40;97.10
22071;DHT22;11200;51.488;6.668;2022-09-02T17:29:57;25.30;97.00
22071;DHT22;11200;51.488;6.668;2022-09-02T17:32:25;25.30;97.10
22071;DHT22;11200;51.488;6.668;2022-09-02T17:34:51;25.30;97.00
22071;DHT22;11200;51.488;6.668;2022-09-02T17:37:18;25.20;96.60